createdAt,value
2023-04-02T00:01:02.659Z,14.04
2023-04-02T00:03:44.005Z,14.62
2023-04-02T00:06:30.576Z,14.63
2023-04-02T00:09:17.372Z,13.65
2023-04-02T00:11:46.631Z,12.74
2023-04-02T00:14:17.632Z,12.16
2023-04-02T00:16:46.073Z,11.66
2023-04-02T00:19:23.246Z,11.22
2023-04-02T00:21:52.355Z,11.19
2023-04-02T00:24:22.337Z,12.50
2023-04-02T00:26:52.222Z,13.63
2023-04-02T00:29:21.251Z,14.11
2023-04-02T00:31:54.029Z,13.43
2023-04-02T00:34:36.782Z,12.57
2023-04-02T00:37:04.985Z,11.84
2023-04-02T00:39:41.812Z,11.37
2023-04-02T00:42:12.761Z,10.98
2023-04-02T00:44:44.366Z,10.99
2023-04-02T00:47:33.703Z,12.37
2023-04-02T00:50:07.855Z,13.68
2023-04-02T00:52:36.730Z,13.84
2023-04-02T00:55:37.071Z,12.94
2023-04-02T00:58:19.314Z,11.97
2023-04-02T01:00:51.613Z,11.38
2023-04-02T01:03:19.568Z,11.01
2023-04-02T01:05:57.062Z,10.65
2023-04-02T01:08:44.163Z,10.91
2023-04-02T01:11:24.195Z,12.25
2023-04-02T01:14:12.818Z,13.10
2023-04-02T01:17:15.667Z,12.49
2023-04-02T01:19:58.625Z,11.38
2023-04-02T01:22:37.202Z,10.76
2023-04-02T01:25:06.624Z,10.60
2023-04-02T01:27:52.449Z,11.81
2023-04-02T01:30:21.207Z,12.81
2023-04-02T01:32:50.013Z,12.21
2023-04-02T01:35:18.339Z,11.47
2023-04-02T01:37:59.374Z,10.91
2023-04-02T01:40:53.646Z,10.41
2023-04-02T01:43:30.460Z,10.47
2023-04-02T01:45:59.292Z,11.88
2023-04-02T01:48:30.506Z,12.87
2023-04-02T01:51:00.602Z,13.23
2023-04-02T01:53:31.511Z,12.37
2023-04-02T01:56:02.785Z,11.50
2023-04-02T01:58:32.950Z,10.92
2023-04-02T02:01:26.430Z,10.59
2023-04-02T02:03:54.947Z,11.68
2023-04-02T02:06:24.044Z,12.84
2023-04-02T02:09:01.448Z,13.56
2023-04-02T02:11:32.039Z,13.24
2023-04-02T02:14:02.546Z,12.39
2023-04-02T02:16:32.510Z,11.58
2023-04-02T02:19:04.948Z,11.02
2023-04-02T02:21:43.623Z,10.65
2023-04-02T02:24:24.671Z,10.69
2023-04-02T02:27:03.121Z,12.13
2023-04-02T02:29:35.509Z,13.09
2023-04-02T02:32:05.734Z,12.70
2023-04-02T02:34:48.369Z,11.87
2023-04-02T02:37:23.898Z,11.18
2023-04-02T02:39:56.292Z,10.69
2023-04-02T02:42:47.547Z,10.45
2023-04-02T02:45:20.130Z,11.61
2023-04-02T02:47:50.414Z,12.85
2023-04-02T02:50:23.102Z,13.29
2023-04-02T02:52:55.061Z,12.56
2023-04-02T02:55:32.726Z,11.69
2023-04-02T03:07:42.843Z,12.97
2023-04-02T03:10:17.960Z,12.29
2023-04-02T03:12:59.184Z,11.38
2023-04-02T03:15:49.932Z,10.70
2023-04-02T03:18:36.610Z,10.62
2023-04-02T03:21:14.342Z,11.94
2023-04-02T03:23:46.139Z,12.89
2023-04-02T03:26:26.675Z,12.57
2023-04-02T03:29:17.864Z,11.55
2023-04-02T03:31:51.500Z,10.83
2023-04-02T03:34:26.898Z,10.30
2023-04-02T03:37:18.500Z,10.21
2023-04-02T03:40:07.580Z,11.63
2023-04-02T03:42:48.436Z,12.62
2023-04-02T03:45:24.250Z,12.85
2023-04-02T03:48:03.812Z,12.02
2023-04-02T03:50:41.399Z,11.17
2023-04-02T03:53:09.650Z,10.57
2023-04-02T03:55:40.073Z,10.08
2023-04-02T03:58:23.301Z,10.43
2023-04-02T04:01:17.580Z,11.68
2023-04-02T04:03:51.080Z,12.39
2023-04-02T04:06:29.139Z,11.75
2023-04-02T04:09:20.919Z,10.88
2023-04-02T04:11:52.943Z,10.21
2023-04-02T04:14:30.972Z,9.82
2023-04-02T04:17:15.568Z,9.77
2023-04-02T04:19:49.634Z,10.97
2023-04-02T04:22:20.373Z,11.96
2023-04-02T04:24:53.283Z,12.50
2023-04-02T04:27:33.780Z,12.50
2023-04-02T04:30:24.556Z,11.64
2023-04-02T04:32:58.877Z,10.78
2023-04-02T04:35:37.851Z,10.12
2023-04-02T04:38:27.648Z,9.86
2023-04-02T04:41:00.271Z,11.06
2023-04-02T04:43:44.258Z,12.07
2023-04-02T04:46:20.748Z,12.43
2023-04-02T04:49:08.333Z,11.75
2023-04-02T04:51:47.846Z,10.88
2023-04-02T04:54:17.310Z,10.31
2023-04-02T04:56:53.816Z,9.94
2023-04-02T04:59:28.452Z,9.64
2023-04-02T05:02:17.504Z,9.67
2023-04-02T05:04:51.749Z,11.05
2023-04-02T05:07:30.323Z,12.11
2023-04-02T05:10:12.392Z,11.64
2023-04-02T05:12:48.763Z,10.80
2023-04-02T05:15:33.377Z,10.21
2023-04-02T05:18:45.342Z,10.60
2023-04-02T05:21:34.360Z,11.69
2023-04-02T05:24:48.405Z,12.08
2023-04-02T05:27:46.321Z,11.40
2023-04-02T05:30:53.363Z,10.55
2023-04-02T05:33:28.409Z,10.15
2023-04-02T05:36:15.389Z,10.97
2023-04-02T05:38:52.406Z,12.08
2023-04-02T05:41:49.368Z,12.44
2023-04-02T05:44:35.017Z,11.47
2023-04-02T05:47:20.357Z,10.54
2023-04-02T05:50:11.434Z,9.90
2023-04-02T05:53:08.400Z,9.64
2023-04-02T05:55:52.841Z,10.62
2023-04-02T05:59:04.421Z,11.48
2023-04-02T06:02:10.453Z,12.49
2023-04-02T06:05:07.556Z,12.58
2023-04-02T06:07:49.918Z,11.55
2023-04-02T06:10:29.448Z,10.73
2023-04-02T06:13:06.880Z,10.15
2023-04-02T06:15:41.409Z,9.97
2023-04-02T06:25:54.519Z,11.08
2023-04-02T06:28:36.189Z,10.38
2023-04-02T06:31:12.170Z,9.96
2023-04-02T06:33:40.316Z,9.66
2023-04-02T06:36:12.431Z,9.44
2023-04-02T06:38:43.269Z,9.62
2023-04-02T06:41:19.741Z,10.70
2023-04-02T06:44:17.550Z,11.95
2023-04-02T06:46:59.351Z,11.83
2023-04-02T06:49:57.726Z,10.89
2023-04-02T06:52:34.907Z,10.00
2023-04-02T06:55:46.928Z,9.48
2023-04-02T06:58:19.499Z,9.01
2023-04-02T07:00:50.235Z,9.05
2023-04-02T07:03:28.978Z,10.12
2023-04-02T07:06:02.594Z,11.12
2023-04-02T07:08:32.659Z,10.82
2023-04-02T07:11:01.149Z,10.11
2023-04-02T07:13:29.986Z,9.49
2023-04-02T07:15:59.350Z,9.19
2023-04-02T07:18:30.930Z,9.81
2023-04-02T07:21:00.386Z,10.58
2023-04-02T07:23:29.114Z,10.73
2023-04-02T07:25:58.679Z,10.13
2023-04-02T07:28:26.781Z,9.50
2023-04-02T07:30:56.184Z,8.98
2023-04-02T07:33:27.283Z,8.80
2023-04-02T07:35:57.545Z,9.88
2023-04-02T07:38:26.005Z,11.05
2023-04-02T07:40:54.466Z,10.76
2023-04-02T07:43:23.323Z,10.03
2023-04-02T07:45:51.950Z,9.43
2023-04-02T07:48:20.017Z,8.97
2023-04-02T07:50:48.107Z,9.69
2023-04-02T07:53:31.717Z,10.42
2023-04-02T07:56:02.458Z,10.43
2023-04-02T07:58:32.374Z,9.84
2023-04-02T08:01:01.909Z,9.23
2023-04-02T08:03:30.230Z,8.74
2023-04-02T08:05:59.342Z,8.69
2023-04-02T08:08:27.418Z,9.32
2023-04-02T08:10:55.805Z,9.80
2023-04-02T08:13:23.975Z,10.16
2023-04-02T08:15:52.241Z,10.41
2023-04-02T08:18:23.729Z,9.95
2023-04-02T08:20:52.894Z,9.47
2023-04-02T08:23:21.888Z,9.14
2023-04-02T08:25:51.016Z,8.90
2023-04-02T08:28:19.483Z,8.52
2023-04-02T08:30:51.668Z,8.45
2023-04-02T08:33:19.950Z,9.19
2023-04-02T08:35:49.754Z,9.92
2023-04-02T08:38:20.053Z,9.86
2023-04-02T08:40:54.849Z,9.35
2023-04-02T08:43:53.453Z,8.83
2023-04-02T08:46:29.703Z,8.38
2023-04-02T08:49:04.850Z,8.37
2023-04-02T08:51:36.546Z,8.89
2023-04-02T08:54:27.807Z,9.34
2023-04-02T08:57:04.583Z,10.22
2023-04-02T08:59:38.966Z,11.15
2023-04-02T09:02:25.771Z,10.61
2023-04-02T09:04:56.299Z,9.75
2023-04-02T09:07:26.657Z,9.19
2023-04-02T09:09:55.282Z,8.74
2023-04-02T09:12:29.805Z,8.41
2023-04-02T09:15:20.572Z,8.20
2023-04-02T09:17:54.048Z,8.71
2023-04-02T09:20:26.581Z,10.20
2023-04-02T09:22:56.707Z,11.18
2023-04-02T09:25:27.996Z,10.73
2023-04-02T09:27:58.901Z,9.97
2023-04-02T09:30:54.589Z,9.35
2023-04-02T09:33:42.049Z,8.88
2023-04-02T09:36:38.192Z,8.62
2023-04-02T09:39:17.768Z,8.40
2023-04-02T09:41:55.830Z,9.05
2023-04-02T09:44:31.442Z,10.70
2023-04-02T09:47:10.804Z,11.46
2023-04-02T09:49:40.282Z,10.81
2023-04-02T09:52:16.873Z,10.04
2023-04-02T09:54:46.105Z,9.48
2023-04-02T09:57:27.421Z,9.10
2023-04-02T10:03:07.104Z,8.51
2023-04-02T10:08:21.566Z,10.18
2023-04-02T10:10:53.240Z,11.29
2023-04-02T10:13:33.883Z,11.47
2023-04-02T10:16:11.756Z,10.75
2023-04-02T10:18:52.040Z,9.90
2023-04-02T10:21:25.942Z,9.34
2023-04-02T10:23:55.915Z,8.97
2023-04-02T10:26:36.389Z,8.70
2023-04-02T10:29:25.295Z,8.46
2023-04-02T10:32:00.811Z,9.21
2023-04-02T10:34:54.356Z,10.61
2023-04-02T10:37:44.071Z,11.23
2023-04-02T10:40:36.437Z,10.51
2023-04-02T10:43:42.486Z,9.76
2023-04-02T10:46:29.315Z,9.28
2023-04-02T10:49:11.716Z,8.98
2023-04-02T10:51:54.385Z,8.65
2023-04-02T10:54:38.767Z,8.43
2023-04-02T10:57:28.606Z,8.30
2023-04-02T11:00:11.053Z,8.93
2023-04-02T11:03:08.725Z,10.46
2023-04-02T11:05:53.712Z,11.29
2023-04-02T11:08:34.049Z,10.58
2023-04-02T11:11:16.060Z,9.82
2023-04-02T11:14:15.191Z,9.17
2023-04-02T11:16:44.773Z,8.66
2023-04-02T11:19:18.873Z,9.59
2023-04-02T11:21:59.362Z,10.92
2023-04-02T11:24:34.590Z,10.63
2023-04-02T11:27:11.839Z,9.80
2023-04-02T11:29:44.591Z,9.17
2023-04-02T11:32:20.897Z,8.83
2023-04-02T11:34:56.476Z,9.76
2023-04-02T11:37:45.299Z,11.19
2023-04-02T11:40:16.646Z,11.92
2023-04-02T11:42:52.969Z,11.08
2023-04-02T11:45:24.156Z,10.07
2023-04-02T11:48:01.420Z,9.41
2023-04-02T11:50:44.955Z,9.12
2023-04-02T11:53:13.816Z,9.96
2023-04-02T11:55:46.798Z,10.98
2023-04-02T11:58:33.355Z,11.75
2023-04-02T12:01:34.341Z,11.72
2023-04-02T12:04:11.898Z,10.54
2023-04-02T12:07:07.569Z,9.72
2023-04-02T12:10:18.721Z,10.31
2023-04-02T12:12:47.300Z,10.92
2023-04-02T12:15:38.193Z,11.61
2023-04-02T12:18:19.646Z,12.23
2023-04-02T12:20:56.565Z,11.91
2023-04-02T12:23:32.507Z,10.82
2023-04-02T12:26:03.610Z,10.64
2023-04-02T12:28:34.104Z,11.37
2023-04-02T12:31:15.109Z,12.28
2023-04-02T12:33:43.201Z,12.05
2023-04-02T12:36:14.769Z,11.10
2023-04-02T12:38:48.282Z,10.35
2023-04-02T12:41:24.873Z,10.43
2023-04-02T12:44:06.601Z,11.46
2023-04-02T12:46:37.994Z,11.31
2023-04-02T12:49:22.121Z,10.47
2023-04-02T12:51:53.112Z,10.05
2023-04-02T12:54:21.802Z,11.13
2023-04-02T12:56:50.815Z,12.09
2023-04-02T12:59:27.856Z,12.66
2023-04-02T13:02:02.586Z,12.98
2023-04-02T13:04:30.722Z,12.19
2023-04-02T13:06:59.625Z,11.11
2023-04-02T13:09:46.842Z,10.23
2023-04-02T13:12:41.530Z,10.67
2023-04-02T13:15:43.775Z,12.05
2023-04-02T13:18:18.911Z,12.74
2023-04-02T13:20:58.854Z,11.89
2023-04-02T13:23:29.966Z,10.80
2023-04-02T13:26:12.033Z,10.06
2023-04-02T13:28:40.104Z,10.00
2023-04-02T13:31:16.314Z,11.33
2023-04-02T13:33:44.349Z,12.38
2023-04-02T13:36:15.898Z,12.82
2023-04-02T13:38:43.959Z,12.08
2023-04-02T13:41:29.680Z,11.18
2023-04-02T13:44:01.205Z,10.41
2023-04-02T13:46:32.238Z,9.84
2023-04-02T13:49:00.970Z,9.78
2023-04-02T13:51:49.576Z,10.97
2023-04-02T13:54:30.522Z,12.18
2023-04-02T13:56:58.554Z,11.74
2023-04-02T13:59:27.208Z,11.03
2023-04-02T14:01:59.742Z,10.50
2023-04-02T14:04:31.706Z,10.19
2023-04-02T14:07:12.402Z,10.19
2023-04-02T14:10:01.847Z,11.37
2023-04-02T14:12:39.271Z,12.27
2023-04-02T14:15:33.419Z,12.54
2023-04-02T14:18:38.181Z,11.55
2023-04-02T14:21:21.322Z,10.34
2023-04-02T14:23:55.678Z,10.04
2023-04-02T14:26:39.863Z,10.91
2023-04-02T14:29:21.901Z,11.71
2023-04-02T14:31:53.238Z,12.18
2023-04-02T14:34:43.413Z,11.19
2023-04-02T14:37:35.546Z,10.01
2023-04-02T14:40:07.815Z,10.08
2023-04-02T14:43:19.113Z,10.76
2023-04-02T14:45:59.003Z,11.39
2023-04-02T14:48:36.334Z,11.84
2023-04-02T14:51:27.667Z,11.72
2023-04-02T14:54:17.554Z,10.61
2023-04-02T14:56:49.297Z,9.66
2023-04-02T14:59:24.068Z,9.46
2023-04-02T15:02:18.564Z,10.37
2023-04-02T15:04:59.523Z,11.17
2023-04-02T15:07:39.137Z,11.68
2023-04-02T15:10:19.146Z,12.07
2023-04-02T15:12:49.034Z,11.70
2023-04-02T15:15:56.462Z,10.75
2023-04-02T15:18:25.618Z,9.73
2023-04-02T15:25:49.284Z,10.44
2023-04-02T15:28:29.357Z,11.57
2023-04-02T15:31:03.790Z,11.53
2023-04-02T15:33:38.011Z,10.51
2023-04-02T15:36:31.516Z,9.67
2023-04-02T15:39:27.677Z,9.06
2023-04-02T15:42:15.491Z,10.26
2023-04-02T15:45:10.023Z,11.22
2023-04-02T15:47:51.361Z,11.58
2023-04-02T15:50:39.209Z,11.71
2023-04-02T15:53:22.372Z,11.63
2023-04-02T15:55:55.935Z,10.65
2023-04-02T15:58:45.700Z,9.58
2023-04-02T16:01:37.426Z,9.16
2023-04-02T16:04:34.289Z,9.77
2023-04-02T16:07:24.770Z,10.18
2023-04-02T16:10:11.596Z,10.14
2023-04-02T16:12:41.054Z,9.90
2023-04-02T16:15:23.598Z,9.84
2023-04-02T16:22:29.686Z,9.92
2023-04-02T16:25:02.222Z,10.61
2023-04-02T16:27:38.443Z,10.69
2023-04-02T16:30:45.604Z,10.87
2023-04-02T16:33:22.494Z,10.85
2023-04-02T16:35:56.968Z,10.63
2023-04-02T16:38:54.864Z,10.59
2023-04-02T16:41:38.598Z,10.53
2023-04-02T16:44:29.514Z,10.33
2023-04-02T16:47:19.141Z,10.31
2023-04-02T16:50:13.825Z,10.95
2023-04-02T16:52:50.838Z,11.40
2023-04-02T16:55:23.689Z,11.48
2023-04-02T16:58:10.657Z,11.33
2023-04-02T17:00:48.516Z,9.95
2023-04-02T17:03:35.283Z,8.90
2023-04-02T17:06:08.429Z,9.88
2023-04-02T17:08:43.823Z,10.88
2023-04-02T17:11:29.708Z,11.55
2023-04-02T17:14:07.548Z,11.55
2023-04-02T17:16:43.129Z,10.22
2023-04-02T17:19:16.170Z,9.05
2023-04-02T17:21:48.655Z,9.45
2023-04-02T17:24:42.805Z,10.72
2023-04-02T17:27:28.933Z,11.35
2023-04-02T17:30:19.394Z,10.03
2023-04-02T17:32:47.375Z,8.57
2023-04-02T17:35:21.465Z,8.87
2023-04-02T17:38:01.163Z,9.67
2023-04-02T17:40:31.797Z,10.57
2023-04-02T17:43:05.636Z,11.07
2023-04-02T17:45:56.494Z,10.46
2023-04-02T17:48:35.645Z,9.05
2023-04-02T17:51:35.726Z,9.37
2023-04-02T17:54:25.767Z,10.36
2023-04-02T17:57:00.662Z,10.92
2023-04-02T18:00:04.617Z,11.00
2023-04-02T18:02:56.102Z,9.53
2023-04-02T18:05:32.695Z,8.35
2023-04-02T18:08:12.578Z,8.48
2023-04-02T18:10:46.112Z,9.14
2023-04-02T18:13:36.610Z,9.64
2023-04-02T18:16:43.106Z,9.81
2023-04-02T18:19:17.163Z,10.44
2023-04-02T18:22:14.338Z,10.85
2023-04-02T18:24:59.361Z,11.20
2023-04-02T18:27:40.692Z,11.40
2023-04-02T18:30:39.218Z,10.24
2023-04-02T18:33:40.400Z,8.96
2023-04-02T18:36:45.942Z,9.39
2023-04-02T18:39:19.291Z,9.91
2023-04-02T18:42:01.748Z,10.04
2023-04-02T18:44:50.970Z,10.17
2023-04-02T18:47:30.835Z,10.41
2023-04-02T18:50:17.009Z,10.77
2023-04-02T18:52:45.486Z,10.81
2023-04-02T18:55:17.956Z,10.73
2023-04-02T18:57:51.603Z,10.60
2023-04-02T19:00:30.558Z,10.41
2023-04-02T19:03:07.587Z,10.52
2023-04-02T19:05:40.797Z,10.95
2023-04-02T19:08:15.776Z,11.04
2023-04-02T19:10:46.760Z,11.21
2023-04-02T19:13:19.565Z,10.89
2023-04-02T19:16:15.575Z,9.84
2023-04-02T19:18:43.607Z,8.87
2023-04-02T19:21:41.325Z,9.54
2023-04-02T19:24:40.150Z,10.57
2023-04-02T19:27:16.277Z,11.16
2023-04-02T19:30:18.137Z,11.39
2023-04-02T19:32:55.617Z,11.18
2023-04-02T19:35:31.624Z,10.06
2023-04-02T19:38:31.202Z,8.99
2023-04-02T19:41:24.542Z,9.56
2023-04-02T19:43:54.349Z,10.51
2023-04-02T19:46:25.796Z,10.85
2023-04-02T19:49:12.719Z,10.87
2023-04-02T19:51:40.676Z,9.73
2023-04-02T19:54:09.105Z,8.50
2023-04-02T19:56:37.293Z,8.32
2023-04-02T19:59:16.959Z,9.10
2023-04-02T20:01:47.188Z,9.86
2023-04-02T20:04:15.519Z,10.32
2023-04-02T20:06:44.130Z,10.65
2023-04-02T20:13:47.866Z,8.59
2023-04-02T20:16:16.743Z,8.44
2023-04-02T20:18:45.439Z,9.40
2023-04-02T20:21:13.511Z,10.12
2023-04-02T20:23:41.662Z,9.73
2023-04-02T20:26:10.635Z,8.64
2023-04-02T20:28:38.815Z,7.94
2023-04-02T20:31:09.490Z,8.32
2023-04-02T20:33:38.755Z,9.20
2023-04-02T20:36:10.447Z,10.04
2023-04-02T20:38:38.939Z,10.47
2023-04-02T20:41:08.473Z,10.71
2023-04-02T20:43:40.492Z,10.83
2023-04-02T20:46:12.291Z,9.51
2023-04-02T20:48:40.984Z,8.31
2023-04-02T20:51:11.451Z,7.51
2023-04-02T20:53:39.691Z,7.76
2023-04-02T20:56:14.538Z,8.50
2023-04-02T20:58:43.845Z,8.88
2023-04-02T21:01:18.542Z,9.35
2023-04-02T21:03:47.514Z,9.79
2023-04-02T21:06:17.741Z,9.72
2023-04-02T21:08:46.288Z,8.70
2023-04-02T21:11:14.956Z,7.67
2023-04-02T21:13:44.525Z,7.15
2023-04-02T21:16:19.447Z,7.99
2023-04-02T21:18:51.549Z,8.48
2023-04-02T21:21:25.515Z,7.64
2023-04-02T21:24:06.540Z,6.81
2023-04-02T21:26:41.609Z,6.34
2023-04-02T21:29:14.527Z,7.06
2023-04-02T21:31:46.592Z,7.95
2023-04-02T21:34:18.019Z,8.10
2023-04-02T21:36:50.480Z,7.35
2023-04-02T21:39:24.008Z,6.66
2023-04-02T21:41:54.161Z,6.10
2023-04-02T21:44:24.740Z,5.72
2023-04-02T21:46:55.597Z,5.63
2023-04-02T21:49:27.569Z,6.48
2023-04-02T21:51:59.586Z,7.46
2023-04-02T21:54:30.971Z,7.90
2023-04-02T21:57:02.592Z,7.28
2023-04-02T21:59:34.009Z,6.62
2023-04-02T22:02:05.575Z,6.13
2023-04-02T22:04:37.570Z,5.73
2023-04-02T22:07:09.589Z,5.47
2023-04-02T22:09:41.556Z,5.46
2023-04-02T22:12:12.589Z,6.31
2023-04-02T22:14:43.583Z,6.55
2023-04-02T22:24:46.534Z,5.17
2023-04-02T22:27:14.505Z,4.96
2023-04-02T22:29:42.575Z,4.80
2023-04-02T22:32:10.575Z,4.67
2023-04-02T22:34:45.720Z,4.56
2023-04-02T22:37:13.867Z,4.47
2023-04-02T22:39:42.021Z,4.38
2023-04-02T22:42:10.031Z,4.32
2023-04-02T22:44:38.062Z,4.25
2023-04-02T22:47:06.029Z,4.19
2023-04-02T22:49:34.024Z,4.14
2023-04-02T22:52:03.811Z,4.27
2023-04-02T22:54:31.990Z,5.72
2023-04-02T22:57:00.013Z,7.09
2023-04-02T22:59:28.541Z,6.91
2023-04-02T23:01:56.766Z,6.23
2023-04-02T23:04:25.091Z,5.68
2023-04-02T23:06:53.773Z,5.28
2023-04-02T23:09:22.213Z,4.97
2023-04-02T23:11:50.132Z,4.73
2023-04-02T23:14:18.191Z,4.52
2023-04-02T23:16:46.130Z,4.36
2023-04-02T23:19:14.151Z,4.23
2023-04-02T23:21:42.101Z,4.12
2023-04-02T23:24:12.627Z,4.04
2023-04-02T23:26:40.622Z,3.98
2023-04-02T23:29:09.902Z,3.90
2023-04-02T23:31:38.434Z,3.80
2023-04-02T23:34:06.882Z,3.71
2023-04-02T23:36:35.645Z,3.63
2023-04-02T23:39:11.500Z,3.58
2023-04-02T23:41:42.542Z,3.53
2023-04-02T23:44:11.208Z,3.49
2023-04-02T23:46:39.211Z,3.44
2023-04-02T23:49:08.394Z,3.40
2023-04-02T23:51:36.376Z,3.35
2023-04-02T23:54:04.328Z,3.31
2023-04-02T23:56:32.397Z,3.27
2023-04-02T23:59:00.772Z,3.22
